Time;durP1;ratioP1;P1;durP2;ratioP2;P2;SDS_P1;SDS_P2;PMS_P1;PMS_P2;Temp;Humidity;BMP_temperature;BMP_pressure;BME280_temperature;BME280_humidity;BME280_pressure;Samples;Min_cycle;Max_cycle;Signal;HPM_P1;HPM_P2
2021/01/25 00:00:56;;;;;;;2.00;1.80;;;24.10;65.60;;;;;;5033925;28;20452;-63
2021/01/25 00:03:22;;;;;;;1.67;1.57;;;24.10;66.10;;;;;;5034108;28;20747;-64
2021/01/25 00:05:48;;;;;;;2.00;1.90;;;24.20;65.60;;;;;;5033795;28;20451;-63
2021/01/25 00:08:14;;;;;;;1.77;1.67;;;24.10;65.60;;;;;;5034041;28;20456;-63
2021/01/25 00:10:42;;;;;;;1.70;1.60;;;24.10;65.50;;;;;;5033996;28;20445;-64
2021/01/25 00:13:10;;;;;;;1.60;1.50;;;24.10;65.50;;;;;;5033972;28;20456;-64
2021/01/25 00:15:36;;;;;;;1.67;1.57;;;24.10;65.40;;;;;;5033622;28;20448;-64
2021/01/25 00:18:03;;;;;;;2.03;1.93;;;24.10;65.20;;;;;;5033826;28;20519;-64
2021/01/25 00:20:29;;;;;;;1.80;1.60;;;24.10;65.60;;;;;;5033796;28;20477;-64
2021/01/25 00:22:55;;;;;;;1.90;1.80;;;24.10;65.20;;;;;;5034322;28;20446;-64
2021/01/25 00:25:22;;;;;;;1.60;1.50;;;24.10;65.00;;;;;;5033511;28;20445;-63
2021/01/25 00:27:49;;;;;;;1.70;1.60;;;24.10;65.00;;;;;;5033799;28;20456;-64
2021/01/25 00:30:18;;;;;;;1.80;1.70;;;24.10;65.30;;;;;;5033502;28;20450;-64
2021/01/25 00:32:45;;;;;;;1.60;1.50;;;24.10;65.80;;;;;;5033472;28;20448;-63
2021/01/25 00:35:12;;;;;;;1.57;1.47;;;24.10;65.10;;;;;;5033751;28;20450;-63
2021/01/25 00:37:39;;;;;;;1.80;1.70;;;24.10;64.90;;;;;;5033568;28;20492;-64
2021/01/25 00:40:06;;;;;;;2.30;1.60;;;24.10;65.20;;;;;;5033610;28;20452;-64
2021/01/25 00:42:33;;;;;;;1.57;1.47;;;24.10;65.10;;;;;;5033634;28;20442;-64
2021/01/25 00:45:00;;;;;;;1.87;1.77;;;24.10;64.90;;;;;;5033556;28;20447;-64
2021/01/25 00:47:27;;;;;;;1.60;1.47;;;24.10;65.00;;;;;;5033585;28;20444;-64
2021/01/25 00:49:53;;;;;;;1.83;1.73;;;24.10;64.70;;;;;;5033547;28;20449;-63
2021/01/25 00:52:22;;;;;;;1.47;1.37;;;24.10;64.90;;;;;;5033574;28;20449;-63
2021/01/25 00:54:49;;;;;;;1.70;1.60;;;24.10;64.80;;;;;;5033303;28;20444;-63
2021/01/25 00:57:16;;;;;;;1.70;1.60;;;24.00;64.70;;;;;;5035409;28;20483;-65
2021/01/25 00:59:42;;;;;;;1.50;1.40;;;24.10;64.90;;;;;;5037493;28;20444;-63
2021/01/25 01:05:31;;;;;;;1.70;1.60;;;24.00;64.90;;;;;;5037346;28;20475;-64
2021/01/25 01:07:58;;;;;;;1.60;1.50;;;24.00;64.50;;;;;;5037127;28;20951;-63
2021/01/25 01:10:24;;;;;;;1.77;1.67;;;24.00;64.70;;;;;;5037106;28;20440;-63
2021/01/25 01:12:50;;;;;;;2.00;1.90;;;24.00;64.60;;;;;;5037366;28;20484;-63
2021/01/25 01:15:17;;;;;;;1.50;1.40;;;24.00;64.20;;;;;;5037018;28;20444;-63
2021/01/25 01:17:43;;;;;;;1.60;1.50;;;24.00;64.70;;;;;;5036835;28;20488;-64
2021/01/25 01:20:11;;;;;;;1.50;1.40;;;24.00;64.30;;;;;;5036665;28;20978;-64
2021/01/25 01:22:38;;;;;;;1.47;1.30;;;24.00;64.40;;;;;;5037173;28;20448;-63
2021/01/25 01:25:06;;;;;;;1.60;1.50;;;24.00;64.30;;;;;;5037144;28;20490;-63
2021/01/25 01:27:32;;;;;;;1.80;1.70;;;24.00;64.30;;;;;;5036669;28;20453;-63
2021/01/25 01:29:59;;;;;;;1.60;1.50;;;24.00;64.20;;;;;;5036963;28;20471;-63
2021/01/25 01:32:25;;;;;;;1.70;1.60;;;24.00;64.90;;;;;;5037469;28;20449;-64
2021/01/25 01:34:51;;;;;;;1.67;1.57;;;24.00;64.10;;;;;;5036915;28;20830;-63
2021/01/25 01:37:18;;;;;;;1.70;1.60;;;24.00;63.90;;;;;;5036842;28;20561;-63
2021/01/25 01:39:45;;;;;;;1.47;1.37;;;24.00;63.80;;;;;;5036561;28;20444;-63
2021/01/25 01:42:15;;;;;;;1.67;1.57;;;24.00;63.90;;;;;;5036442;28;20453;-63
2021/01/25 01:44:42;;;;;;;1.50;1.40;;;24.00;64.00;;;;;;5036798;28;20436;-63
2021/01/25 01:47:10;;;;;;;1.50;1.40;;;24.00;64.00;;;;;;5036469;28;20444;-63
2021/01/25 01:49:37;;;;;;;1.80;1.70;;;24.00;63.90;;;;;;5036658;28;20463;-63
2021/01/25 01:52:04;;;;;;;1.60;1.50;;;24.00;63.90;;;;;;5036485;28;20444;-64
2021/01/25 01:54:31;;;;;;;1.70;1.60;;;24.00;63.70;;;;;;5036596;28;20502;-64
2021/01/25 01:56:59;;;;;;;2.20;2.03;;;24.00;64.00;;;;;;5036432;28;20496;-63
2021/01/25 01:59:25;;;;;;;1.53;1.43;;;24.00;63.80;;;;;;5036512;28;20448;-64
2021/01/25 02:01:51;;;;;;;1.73;1.53;;;23.90;63.60;;;;;;5036490;28;20807;-63
2021/01/25 02:04:18;;;;;;;2.53;1.60;;;24.10;63.80;;;;;;5036357;28;20459;-64
2021/01/25 02:06:44;;;;;;;1.43;1.33;;;24.00;63.80;;;;;;5035995;28;20458;-63
2021/01/25 02:09:12;;;;;;;1.80;1.70;;;24.00;63.90;;;;;;5035755;28;20449;-64
2021/01/25 02:11:40;;;;;;;4.07;1.60;;;24.00;63.60;;;;;;5036230;28;20445;-63
2021/01/25 02:14:08;;;;;;;1.87;1.77;;;23.90;63.60;;;;;;5036202;28;20842;-63
2021/01/25 02:16:37;;;;;;;1.60;1.50;;;24.00;63.90;;;;;;5036123;28;20440;-63
2021/01/25 02:19:04;;;;;;;1.57;1.47;;;23.90;63.60;;;;;;5036176;28;20785;-64
2021/01/25 02:21:33;;;;;;;1.90;1.80;;;23.90;63.50;;;;;;5035669;28;20476;-64
2021/01/25 02:24:06;;;;;;;1.53;1.43;;;23.90;63.50;;;;;;5035968;28;20439;-63
2021/01/25 02:26:44;;;;;;;1.90;1.80;;;23.90;63.30;;;;;;5035964;28;20436;-64
2021/01/25 02:29:12;;;;;;;1.70;1.60;;;23.90;63.80;;;;;;5035915;28;20436;-64
2021/01/25 02:31:39;;;;;;;1.50;1.40;;;23.90;63.30;;;;;;5035875;28;20449;-63
2021/01/25 02:34:07;;;;;;;2.50;1.70;;;23.90;63.60;;;;;;5036657;28;20775;-64
2021/01/25 02:36:34;;;;;;;1.50;1.40;;;23.90;63.60;;;;;;5035712;28;20451;-64
2021/01/25 02:39:01;;;;;;;1.73;1.63;;;23.90;63.50;;;;;;5035781;28;20451;-63
2021/01/25 02:41:29;;;;;;;1.60;1.50;;;23.90;63.60;;;;;;5035667;28;20448;-64
2021/01/25 02:43:58;;;;;;;1.60;1.50;;;23.90;63.50;;;;;;5035351;28;20448;-63
2021/01/25 02:46:26;;;;;;;1.50;1.40;;;23.90;63.40;;;;;;5035643;28;20486;-64
2021/01/25 02:48:53;;;;;;;1.70;1.53;;;23.90;63.30;;;;;;5035681;28;20454;-64
2021/01/25 02:51:19;;;;;;;2.40;1.67;;;23.90;63.20;;;;;;5035508;28;20442;-63
2021/01/25 02:53:45;;;;;;;1.80;1.70;;;23.90;63.10;;;;;;5035447;28;20463;-64
2021/01/25 02:56:12;;;;;;;1.90;1.80;;;23.90;63.00;;;;;;5035407;28;20441;-64
2021/01/25 02:58:38;;;;;;;1.40;1.30;;;23.90;63.10;;;;;;5035267;28;20845;-64
2021/01/25 03:01:05;;;;;;;1.50;1.40;;;23.90;63.20;;;;;;5035375;28;20447;-64
2021/01/25 03:03:32;;;;;;;1.90;1.80;;;23.90;63.10;;;;;;5035256;28;20515;-64
2021/01/25 03:05:59;;;;;;;2.00;1.73;;;23.90;63.30;;;;;;5035141;28;20511;-63
2021/01/25 03:08:28;;;;;;;1.53;1.43;;;23.90;63.00;;;;;;5034808;28;20447;-64
2021/01/25 03:10:55;;;;;;;1.70;1.60;;;23.90;63.10;;;;;;5034830;28;20501;-64
2021/01/25 03:13:26;;;;;;;1.53;1.43;;;23.90;63.10;;;;;;5035653;28;20448;-64
2021/01/25 03:15:54;;;;;;;1.50;1.40;;;23.90;63.10;;;;;;5035079;28;20432;-63
2021/01/25 03:18:20;;;;;;;1.50;1.40;;;23.90;63.00;;;;;;5034877;28;20488;-64
2021/01/25 03:20:48;;;;;;;1.70;1.60;;;23.90;63.20;;;;;;5033840;28;20967;-64
2021/01/25 03:23:17;;;;;;;1.83;1.73;;;23.90;63.20;;;;;;5034859;28;20440;-63
2021/01/25 03:25:44;;;;;;;2.07;1.60;;;23.90;62.80;;;;;;5034811;28;20449;-64
2021/01/25 03:28:11;;;;;;;1.80;1.47;;;23.90;62.80;;;;;;5034823;28;20781;-64
2021/01/25 03:30:37;;;;;;;1.90;1.80;;;23.90;62.90;;;;;;5034777;28;20456;-63
2021/01/25 03:33:05;;;;;;;1.50;1.40;;;23.90;63.50;;;;;;5034773;28;20449;-64
2021/01/25 03:35:32;;;;;;;1.63;1.40;;;23.80;62.90;;;;;;5034737;28;20789;-63
2021/01/25 03:37:59;;;;;;;1.87;1.77;;;23.90;63.10;;;;;;5034556;28;20488;-64
2021/01/25 03:40:25;;;;;;;1.87;1.77;;;23.90;62.80;;;;;;5034577;28;20448;-63
2021/01/25 03:42:52;;;;;;;1.67;1.57;;;23.90;62.70;;;;;;5034511;28;20476;-64
2021/01/25 03:45:18;;;;;;;1.70;1.60;;;23.80;62.80;;;;;;5034161;28;20531;-63
2021/01/25 03:47:47;;;;;;;1.60;1.50;;;23.80;62.60;;;;;;5034479;28;20445;-64
2021/01/25 03:50:14;;;;;;;1.53;1.43;;;23.80;62.70;;;;;;5034373;28;20448;-63
2021/01/25 03:52:41;;;;;;;1.80;1.70;;;23.80;62.70;;;;;;5034358;28;20501;-63
2021/01/25 03:55:09;;;;;;;1.70;1.60;;;23.80;62.70;;;;;;5034295;28;20446;-63
2021/01/25 03:57:36;;;;;;;1.70;1.60;;;23.90;62.60;;;;;;5033853;28;20489;-63
2021/01/25 04:00:04;;;;;;;1.40;1.30;;;23.80;62.50;;;;;;5034241;28;20448;-63
2021/01/25 04:02:31;;;;;;;1.63;1.53;;;23.80;62.50;;;;;;5034657;28;20939;-65
2021/01/25 04:04:58;;;;;;;1.87;1.60;;;23.80;62.40;;;;;;5034124;28;20780;-64
2021/01/25 04:07:24;;;;;;;1.37;1.27;;;23.80;62.60;;;;;;5033839;28;21002;-63
2021/01/25 04:09:50;;;;;;;1.50;1.33;;;23.80;62.50;;;;;;5033724;28;20454;-64
2021/01/25 04:12:17;;;;;;;1.73;1.63;;;23.80;62.60;;;;;;5033720;28;20944;-64
2021/01/25 04:14:43;;;;;;;1.60;1.50;;;23.80;62.80;;;;;;5034061;28;20461;-63
2021/01/25 04:17:10;;;;;;;1.70;1.60;;;23.80;62.50;;;;;;5033891;28;20494;-64
2021/01/25 04:19:37;;;;;;;1.37;1.27;;;23.80;62.60;;;;;;5033947;28;20777;-64
2021/01/25 04:22:03;;;;;;;1.50;1.40;;;23.80;62.30;;;;;;5033465;28;20484;-64
2021/01/25 04:24:29;;;;;;;1.80;1.70;;;23.80;62.50;;;;;;5033906;28;20829;-64
2021/01/25 04:26:55;;;;;;;1.60;1.50;;;23.80;62.40;;;;;;5033785;28;20932;-63
2021/01/25 04:29:23;;;;;;;2.00;1.90;;;23.80;62.30;;;;;;5033800;28;20448;-63
2021/01/25 04:31:49;;;;;;;1.40;1.30;;;23.80;62.50;;;;;;5032836;28;20534;-64
2021/01/25 04:34:15;;;;;;;1.40;1.30;;;23.80;62.10;;;;;;5033751;28;20452;-64
2021/01/25 04:36:41;;;;;;;1.70;1.60;;;23.80;62.30;;;;;;5033698;28;20439;-64
2021/01/25 04:39:08;;;;;;;1.53;1.43;;;23.80;62.40;;;;;;5034090;28;20448;-64
2021/01/25 04:41:34;;;;;;;1.60;1.50;;;23.80;62.50;;;;;;5033615;28;20449;-64
2021/01/25 04:44:01;;;;;;;2.23;2.03;;;23.80;62.20;;;;;;5033660;28;20447;-64
2021/01/25 04:46:30;;;;;;;1.60;1.50;;;23.80;62.30;;;;;;5033379;28;20455;-64
2021/01/25 04:48:56;;;;;;;2.10;2.00;;;23.80;62.30;;;;;;5033591;28;20459;-63
2021/01/25 04:51:25;;;;;;;1.60;1.50;;;23.80;62.30;;;;;;5033571;28;20456;-63
2021/01/25 04:53:51;;;;;;;1.77;1.67;;;23.80;62.50;;;;;;5033235;28;20448;-63
2021/01/25 04:56:17;;;;;;;1.60;1.50;;;23.80;62.40;;;;;;5033253;28;20444;-64
2021/01/25 04:58:44;;;;;;;1.80;1.70;;;23.80;62.10;;;;;;5033454;28;20494;-63
2021/01/25 05:04:33;;;;;;;1.93;1.73;;;23.80;62.00;;;;;;5033269;28;20917;-62
2021/01/25 05:06:59;;;;;;;3.30;1.70;;;23.80;62.40;;;;;;5033385;28;20446;-62
2021/01/25 05:09:26;;;;;;;1.37;1.27;;;23.80;62.30;;;;;;5033478;28;20825;-63
2021/01/25 05:11:59;;;;;;;1.80;1.70;;;23.80;62.30;;;;;;5033354;28;20495;-62
2021/01/25 05:14:25;;;;;;;1.50;1.40;;;23.80;62.30;;;;;;5033279;28;20508;-63
2021/01/25 05:16:52;;;;;;;1.33;1.23;;;23.80;62.30;;;;;;5033218;28;20448;-63
2021/01/25 05:19:18;;;;;;;1.40;1.30;;;23.80;62.60;;;;;;5033303;28;20445;-63
2021/01/25 05:21:46;;;;;;;1.47;1.37;;;23.80;62.30;;;;;;5032895;28;20827;-63
2021/01/25 05:24:13;;;;;;;1.80;1.70;;;23.80;62.50;;;;;;5033242;28;20502;-64
2021/01/25 05:26:50;;;;;;;1.90;1.80;;;23.80;63.00;;;;;;5033203;28;20444;-62
2021/01/25 05:29:22;;;;;;;1.67;1.40;;;23.80;63.00;;;;;;5033294;28;20463;-64
2021/01/25 05:31:49;;;;;;;1.73;1.63;;;23.80;62.90;;;;;;5033018;28;20436;-63
2021/01/25 05:34:18;;;;;;;1.87;1.77;;;23.80;62.90;;;;;;5032813;28;20501;-63
2021/01/25 05:36:45;;;;;;;1.50;1.40;;;23.80;63.20;;;;;;5032755;28;20954;-64
2021/01/25 05:39:14;;;;;;;1.70;1.60;;;23.90;63.30;;;;;;5033168;28;20446;-63
2021/01/25 05:41:51;;;;;;;2.17;1.60;;;23.80;63.20;;;;;;5032769;28;20444;-63
2021/01/25 05:44:17;;;;;;;1.43;1.33;;;23.80;63.10;;;;;;5036723;28;20443;-63
2021/01/25 05:46:44;;;;;;;1.40;1.30;;;23.80;63.10;;;;;;5036701;28;20452;-63
2021/01/25 05:49:10;;;;;;;1.63;1.53;;;23.80;63.30;;;;;;5036668;28;20772;-62
2021/01/25 05:51:39;;;;;;;1.53;1.43;;;23.80;63.60;;;;;;5036637;28;20806;-63
2021/01/25 05:54:06;;;;;;;1.60;1.50;;;23.80;63.50;;;;;;5036563;28;20448;-63
2021/01/25 05:56:33;;;;;;;1.70;1.60;;;23.80;63.20;;;;;;5036504;28;20493;-63
2021/01/25 05:58:59;;;;;;;1.40;1.30;;;23.80;63.30;;;;;;5036469;28;20491;-62
2021/01/25 06:01:26;;;;;;;1.60;1.50;;;23.90;63.20;;;;;;5036425;28;20444;-63
2021/01/25 06:03:53;;;;;;;1.70;1.60;;;23.80;63.70;;;;;;5036443;28;20506;-63
2021/01/25 06:06:24;;;;;;;1.60;1.50;;;23.80;63.40;;;;;;5036330;28;20509;-63
2021/01/25 06:08:57;;;;;;;1.77;1.67;;;23.90;63.40;;;;;;5036320;28;20834;-63
2021/01/25 06:11:28;;;;;;;1.70;1.60;;;23.90;63.40;;;;;;5035985;28;20433;-63
2021/01/25 06:13:58;;;;;;;2.80;1.67;;;23.90;63.70;;;;;;5036284;28;20810;-63
2021/01/25 06:16:26;;;;;;;1.73;1.63;;;23.80;63.30;;;;;;5036306;28;20451;-63
2021/01/25 06:18:56;;;;;;;2.03;1.83;;;23.90;63.90;;;;;;5036064;28;20493;-64
2021/01/25 06:21:25;;;;;;;4.93;1.80;;;23.90;63.80;;;;;;5035640;28;21050;-63
2021/01/25 06:23:52;;;;;;;1.50;1.40;;;23.90;64.30;;;;;;5035657;28;20448;-63
2021/01/25 06:26:19;;;;;;;1.63;1.53;;;23.80;63.70;;;;;;5035657;28;20503;-63
2021/01/25 06:28:48;;;;;;;1.90;1.80;;;23.90;63.40;;;;;;5036724;28;20779;-63
2021/01/25 06:31:18;;;;;;;2.00;1.80;;;23.90;63.80;;;;;;5035839;28;20440;-63
2021/01/25 06:33:47;;;;;;;2.40;2.20;;;23.90;63.60;;;;;;5035826;28;20449;-62
2021/01/25 06:36:16;;;;;;;2.70;2.33;;;23.90;63.90;;;;;;5035683;28;20475;-63
2021/01/25 06:38:44;;;;;;;1.70;1.50;;;23.90;64.10;;;;;;5035695;28;20495;-63
2021/01/25 06:41:11;;;;;;;2.70;1.70;;;23.90;63.80;;;;;;5035754;28;20440;-63
2021/01/25 06:43:41;;;;;;;1.30;1.20;;;23.90;63.50;;;;;;5036172;28;20447;-63
2021/01/25 06:46:09;;;;;;;1.97;1.87;;;23.90;63.70;;;;;;5036433;28;20467;-63
2021/01/25 06:48:36;;;;;;;1.83;1.60;;;23.90;64.30;;;;;;5035571;28;20438;-62
2021/01/25 06:51:06;;;;;;;1.67;1.57;;;23.80;63.70;;;;;;5035238;28;20455;-62
2021/01/25 06:53:32;;;;;;;2.40;2.20;;;23.90;63.70;;;;;;5034929;28;20811;-63
2021/01/25 06:56:00;;;;;;;1.53;1.43;;;23.90;63.80;;;;;;5035040;28;20440;-62
2021/01/25 06:58:29;;;;;;;2.43;1.70;;;23.90;64.20;;;;;;5035514;28;20492;-59
2021/01/25 07:00:56;;;;;;;2.50;2.30;;;23.90;63.90;;;;;;5035343;28;20471;-63
2021/01/25 07:03:23;;;;;;;1.70;1.60;;;23.80;64.00;;;;;;5035266;28;20447;-61
2021/01/25 07:05:51;;;;;;;2.40;1.70;;;23.90;63.90;;;;;;5035252;28;20446;-62
2021/01/25 07:08:22;;;;;;;1.60;1.50;;;23.90;63.80;;;;;;5035128;28;20544;-63
2021/01/25 07:10:53;;;;;;;1.73;1.63;;;23.90;64.10;;;;;;5034999;28;20443;-63
2021/01/25 07:13:22;;;;;;;2.47;1.50;;;23.90;64.00;;;;;;5035173;28;20429;-64
2021/01/25 07:15:49;;;;;;;2.23;1.43;;;23.90;63.80;;;;;;5034714;28;20447;-63
2021/01/25 07:18:15;;;;;;;3.93;2.00;;;23.90;64.10;;;;;;5034989;28;20483;-63
2021/01/25 07:20:47;;;;;;;2.03;1.90;;;23.90;64.30;;;;;;5034632;28;20867;-63
2021/01/25 07:23:19;;;;;;;1.60;1.50;;;23.90;64.20;;;;;;5035132;28;20437;-63
2021/01/25 07:26:03;;;;;;;2.67;1.97;;;23.90;64.00;;;;;;5034974;28;20432;-64
2021/01/25 07:28:31;;;;;;;2.27;1.83;;;23.90;63.80;;;;;;5034901;28;20441;-64
2021/01/25 07:30:57;;;;;;;2.37;1.80;;;23.90;63.20;;;;;;5034890;28;20446;-63
2021/01/25 07:36:46;;;;;;;2.10;2.00;;;23.90;63.30;;;;;;5034528;28;20907;-64
2021/01/25 07:39:14;;;;;;;2.07;1.97;;;23.90;63.20;;;;;;5034267;28;20503;-64
2021/01/25 07:41:42;;;;;;;2.30;2.10;;;23.90;63.20;;;;;;5035120;28;20448;-63
2021/01/25 07:44:10;;;;;;;3.77;2.10;;;23.90;63.90;;;;;;5034509;28;20453;-63
2021/01/25 07:46:37;;;;;;;3.90;2.50;;;23.90;62.90;;;;;;5034182;28;20958;-64
2021/01/25 07:49:03;;;;;;;3.00;2.47;;;23.90;63.20;;;;;;5034432;28;20460;-63
2021/01/25 07:51:32;;;;;;;2.07;1.90;;;23.90;63.50;;;;;;5034424;28;20452;-63
2021/01/25 07:54:00;;;;;;;1.70;1.60;;;23.90;62.90;;;;;;5034316;28;20447;-62
2021/01/25 07:56:28;;;;;;;2.33;2.13;;;23.90;62.80;;;;;;5034276;28;20501;-62
2021/01/25 07:59:04;;;;;;;2.30;2.10;;;23.90;63.30;;;;;;5033877;28;20495;-62
2021/01/25 08:01:38;;;;;;;2.20;2.03;;;23.90;64.30;;;;;;5034151;28;20786;-62
2021/01/25 08:04:06;;;;;;;2.33;1.70;;;23.90;63.40;;;;;;5033886;28;20473;-64
2021/01/25 08:06:34;;;;;;;2.10;2.00;;;23.90;63.00;;;;;;5033636;28;20452;-64
2021/01/25 08:09:04;;;;;;;2.47;2.00;;;23.90;62.80;;;;;;5034682;28;20453;-63
2021/01/25 08:11:32;;;;;;;2.93;1.80;;;23.90;63.60;;;;;;5034037;28;20438;-63
2021/01/25 08:14:06;;;;;;;2.77;1.80;;;23.90;63.30;;;;;;5033966;28;20448;-63
2021/01/25 08:16:37;;;;;;;1.90;1.70;;;23.90;63.50;;;;;;5033695;28;20438;-63
2021/01/25 08:19:10;;;;;;;2.53;2.33;;;23.90;63.50;;;;;;5033863;28;20476;-63
2021/01/25 08:21:41;;;;;;;1.70;1.60;;;23.90;62.60;;;;;;5033499;28;20842;-62
2021/01/25 08:24:10;;;;;;;2.60;1.67;;;23.90;62.20;;;;;;5034008;28;20808;-63
2021/01/25 08:26:37;;;;;;;1.53;1.43;;;23.90;62.70;;;;;;5033535;28;20452;-63
2021/01/25 08:29:18;;;;;;;1.40;1.30;;;23.90;63.20;;;;;;5033846;28;20798;-64
2021/01/25 08:31:46;;;;;;;3.30;2.10;;;23.90;63.30;;;;;;5033645;28;20436;-63
2021/01/25 08:34:19;;;;;;;3.40;2.13;;;23.90;62.30;;;;;;5034150;28;20439;-63
2021/01/25 08:36:58;;;;;;;3.87;2.40;;;23.90;62.60;;;;;;5034438;28;20753;-63
2021/01/25 08:39:34;;;;;;;4.90;2.60;;;23.90;62.50;;;;;;5033505;28;20441;-63
2021/01/25 08:42:01;;;;;;;2.03;1.90;;;23.80;62.50;;;;;;5033356;28;20969;-63
2021/01/25 08:44:29;;;;;;;2.80;2.40;;;23.80;63.00;;;;;;5033634;28;20444;-64
2021/01/25 08:47:07;;;;;;;4.80;2.03;;;23.80;62.90;;;;;;5033255;28;20966;-63
2021/01/25 08:49:35;;;;;;;7.93;2.57;;;23.80;62.70;;;;;;5033636;28;20439;-63
2021/01/25 08:52:04;;;;;;;4.47;2.20;;;24.00;63.30;;;;;;5033208;28;20945;-63
2021/01/25 08:54:32;;;;;;;7.17;2.27;;;23.80;63.20;;;;;;5033514;28;20440;-63
2021/01/25 08:56:59;;;;;;;3.83;2.50;;;23.80;63.50;;;;;;5033475;28;20509;-64
2021/01/25 08:59:32;;;;;;;4.47;2.80;;;23.80;63.60;;;;;;5033550;28;20804;-64
2021/01/25 09:02:09;;;;;;;3.37;2.70;;;23.90;63.80;;;;;;5033543;28;20436;-63
2021/01/25 09:04:35;;;;;;;3.87;3.50;;;23.90;63.70;;;;;;5033439;28;20783;-63
2021/01/25 09:07:01;;;;;;;12.80;4.00;;;23.90;63.90;;;;;;5033147;28;20448;-63
2021/01/25 09:09:27;;;;;;;5.43;3.37;;;23.80;64.00;;;;;;5033075;28;20958;-63
2021/01/25 09:11:54;;;;;;;7.63;4.00;;;23.80;63.90;;;;;;5033122;28;20940;-63
2021/01/25 09:14:22;;;;;;;10.30;5.23;;;23.80;64.10;;;;;;5033015;28;20458;-64
2021/01/25 09:16:50;;;;;;;10.23;4.37;;;23.80;64.50;;;;;;5033322;28;20487;-64
2021/01/25 09:19:16;;;;;;;7.13;4.67;;;23.80;64.60;;;;;;5036807;28;20491;-64
2021/01/25 09:21:42;;;;;;;5.93;5.13;;;23.80;64.70;;;;;;5036709;28;21015;-64
2021/01/25 09:24:09;;;;;;;5.20;4.70;;;23.80;64.80;;;;;;5037126;28;20455;-63
2021/01/25 09:26:35;;;;;;;10.87;4.67;;;23.80;64.70;;;;;;5036820;28;20930;-64
2021/01/25 09:29:02;;;;;;;4.23;3.93;;;23.80;64.80;;;;;;5037096;28;20451;-64
2021/01/25 09:31:29;;;;;;;5.67;4.30;;;23.80;64.70;;;;;;5037830;28;20451;-64
2021/01/25 09:37:18;;;;;;;4.30;3.90;;;23.90;65.00;;;;;;5036641;28;20466;-63
2021/01/25 09:39:44;;;;;;;4.63;4.23;;;23.80;65.10;;;;;;5036567;28;20518;-63
2021/01/25 09:42:11;;;;;;;6.97;4.80;;;23.90;66.10;;;;;;5036413;28;20446;-64
2021/01/25 09:44:37;;;;;;;10.83;4.80;;;23.80;65.20;;;;;;5036793;28;20462;-63
2021/01/25 09:47:05;;;;;;;8.50;6.23;;;23.90;65.30;;;;;;5036748;28;20927;-64
2021/01/25 09:49:32;;;;;;;7.53;4.53;;;23.80;65.20;;;;;;5036674;28;20440;-64
2021/01/25 09:51:58;;;;;;;4.77;3.80;;;23.90;65.40;;;;;;5036538;28;20495;-61
2021/01/25 09:54:25;;;;;;;6.63;4.40;;;23.90;65.40;;;;;;5036551;28;20444;-61
2021/01/25 09:56:52;;;;;;;4.33;3.93;;;23.90;65.40;;;;;;5036520;28;20544;-60
2021/01/25 09:59:18;;;;;;;5.13;4.23;;;23.80;65.30;;;;;;5036465;28;20518;-63
2021/01/25 10:01:46;;;;;;;8.30;4.30;;;23.80;65.30;;;;;;5036440;28;20444;-63
2021/01/25 10:04:12;;;;;;;7.40;4.13;;;23.80;65.30;;;;;;5036398;28;20448;-63
2021/01/25 10:06:38;;;;;;;4.67;4.17;;;23.80;65.30;;;;;;5036134;28;20478;-63
2021/01/25 10:09:05;;;;;;;5.60;4.33;;;23.80;65.40;;;;;;5036235;28;20509;-63
2021/01/25 10:11:33;;;;;;;8.33;3.73;;;23.90;65.40;;;;;;5036311;28;20441;-63
2021/01/25 10:13:59;;;;;;;6.03;3.70;;;23.90;65.50;;;;;;5036308;28;20535;-63
2021/01/25 10:16:25;;;;;;;6.40;4.30;;;23.90;65.60;;;;;;5036246;28;20531;-63
2021/01/25 10:18:53;;;;;;;5.60;4.60;;;23.90;65.50;;;;;;5036095;28;20494;-63
2021/01/25 10:21:20;;;;;;;5.40;4.13;;;23.90;65.60;;;;;;5035892;28;20468;-63
2021/01/25 10:23:47;;;;;;;4.03;3.63;;;23.90;65.60;;;;;;5035721;28;20507;-63
2021/01/25 10:26:13;;;;;;;6.47;4.70;;;23.90;65.60;;;;;;5035994;28;20448;-65
2021/01/25 10:28:41;;;;;;;8.83;4.10;;;23.90;65.60;;;;;;5035582;28;20452;-62
2021/01/25 10:31:07;;;;;;;6.00;4.30;;;24.00;65.70;;;;;;5035892;28;20444;-61
2021/01/25 10:33:34;;;;;;;5.17;3.40;;;24.00;65.60;;;;;;5035892;28;20455;-62
2021/01/25 10:36:00;;;;;;;4.20;3.60;;;24.00;65.50;;;;;;5035837;28;20446;-63
2021/01/25 10:38:26;;;;;;;6.37;4.37;;;24.00;65.50;;;;;;5035398;28;20494;-62
2021/01/25 10:40:53;;;;;;;6.43;4.30;;;24.00;65.40;;;;;;5036225;28;20456;-63
2021/01/25 10:43:20;;;;;;;5.47;4.03;;;24.00;66.20;;;;;;5035707;28;20801;-63
2021/01/25 10:45:47;;;;;;;5.13;3.50;;;24.00;65.30;;;;;;5035636;28;20448;-62
2021/01/25 10:48:13;;;;;;;9.10;3.87;;;24.00;65.30;;;;;;5035657;28;20452;-62
2021/01/25 10:50:40;;;;;;;3.97;3.57;;;24.00;65.20;;;;;;5035339;28;20944;-62
2021/01/25 10:53:06;;;;;;;3.70;3.37;;;24.10;65.30;;;;;;5035190;28;20451;-62
2021/01/25 10:55:32;;;;;;;3.97;3.53;;;24.10;66.10;;;;;;5035499;28;20854;-62
2021/01/25 10:57:58;;;;;;;4.13;3.73;;;24.10;65.30;;;;;;5035344;28;20488;-62
2021/01/25 11:00:26;;;;;;;8.90;3.63;;;24.00;65.10;;;;;;5035317;28;20459;-62
2021/01/25 11:02:53;;;;;;;4.37;3.17;;;24.10;65.30;;;;;;5035026;28;20452;-62
2021/01/25 11:05:21;;;;;;;4.07;3.43;;;24.10;65.20;;;;;;5035295;28;20450;-62
2021/01/25 11:07:48;;;;;;;5.13;3.63;;;24.10;65.20;;;;;;5034970;28;20457;-62
2021/01/25 11:10:16;;;;;;;3.47;3.17;;;24.10;65.20;;;;;;5035223;28;20445;-63
2021/01/25 11:12:43;;;;;;;4.07;3.67;;;24.10;65.20;;;;;;5034741;28;20447;-63
2021/01/25 11:15:10;;;;;;;3.37;3.07;;;24.10;65.20;;;;;;5034710;28;20508;-63
2021/01/25 11:17:37;;;;;;;3.30;3.00;;;24.10;65.20;;;;;;5035753;28;20489;-63
2021/01/25 11:20:06;;;;;;;4.13;3.50;;;24.10;65.00;;;;;;5034854;28;20471;-63
2021/01/25 11:22:32;;;;;;;3.70;3.20;;;24.10;65.00;;;;;;5034931;28;20500;-61
2021/01/25 11:24:58;;;;;;;6.43;3.17;;;24.10;64.80;;;;;;5034907;28;20456;-62
2021/01/25 11:27:25;;;;;;;6.43;4.00;;;24.10;65.00;;;;;;5034891;28;20448;-62
2021/01/25 11:29:51;;;;;;;7.67;3.50;;;24.10;66.10;;;;;;5034782;28;20453;-62
2021/01/25 11:32:17;;;;;;;8.53;4.03;;;24.10;65.60;;;;;;5034399;28;20447;-62
2021/01/25 11:34:43;;;;;;;6.30;3.17;;;24.10;65.60;;;;;;5035491;28;20444;-62
2021/01/25 11:37:11;;;;;;;7.57;3.87;;;24.10;65.70;;;;;;5034599;28;20850;-63
2021/01/25 11:39:37;;;;;;;4.37;3.17;;;24.10;65.70;;;;;;5034037;28;20491;-62
2021/01/25 11:42:04;;;;;;;5.60;3.00;;;24.10;65.90;;;;;;5034267;28;20444;-62
2021/01/25 11:44:30;;;;;;;7.33;3.53;;;24.10;66.00;;;;;;5034461;28;20806;-63
2021/01/25 11:46:56;;;;;;;15.07;4.30;;;24.10;66.10;;;;;;5034456;28;20451;-62
2021/01/25 11:49:23;;;;;;;5.90;4.00;;;24.10;66.10;;;;;;5034460;28;20445;-62
2021/01/25 11:51:49;;;;;;;3.77;3.23;;;24.10;66.30;;;;;;5034431;28;20475;-63
2021/01/25 11:54:18;;;;;;;6.33;4.20;;;24.10;67.40;;;;;;5035097;28;20510;-63
2021/01/25 11:56:44;;;;;;;9.00;3.30;;;24.10;66.60;;;;;;5034300;28;20448;-62
2021/01/25 11:59:11;;;;;;;8.60;4.00;;;24.00;66.50;;;;;;5034075;28;20496;-62
2021/01/25 12:01:37;;;;;;;5.33;3.23;;;24.10;66.70;;;;;;5034253;28;20440;-62
2021/01/25 12:04:04;;;;;;;5.63;3.20;;;24.10;66.60;;;;;;5034209;28;20446;-63
2021/01/25 12:06:30;;;;;;;6.80;3.53;;;24.10;66.60;;;;;;5034907;28;20537;-62
2021/01/25 12:08:57;;;;;;;4.70;3.67;;;24.10;66.60;;;;;;5034199;28;20776;-62
2021/01/25 12:11:24;;;;;;;6.83;3.13;;;24.00;66.50;;;;;;5034085;28;20440;-63
2021/01/25 12:13:50;;;;;;;4.70;3.30;;;24.00;66.50;;;;;;5033719;28;20451;-62
2021/01/25 12:16:17;;;;;;;5.13;2.77;;;24.00;67.20;;;;;;5033972;28;20438;-62
2021/01/25 12:18:44;;;;;;;9.23;2.83;;;24.00;66.50;;;;;;5033861;28;20997;-62
2021/01/25 12:21:10;;;;;;;13.13;3.40;;;24.00;66.20;;;;;;5033514;28;20507;-62
2021/01/25 12:23:36;;;;;;;5.07;2.80;;;24.00;66.10;;;;;;5033914;28;20448;-62
2021/01/25 12:26:03;;;;;;;4.50;3.20;;;24.10;66.20;;;;;;5033543;28;20931;-63
2021/01/25 12:28:30;;;;;;;8.77;3.53;;;24.00;66.10;;;;;;5033864;28;20456;-62
2021/01/25 12:30:58;;;;;;;7.50;3.33;;;24.00;66.20;;;;;;5033709;28;20448;-63
2021/01/25 12:33:24;;;;;;;20.30;5.30;;;24.00;66.90;;;;;;5033441;28;20475;-62
2021/01/25 12:35:50;;;;;;;21.50;5.90;;;24.00;68.10;;;;;;5033723;28;20787;-63
2021/01/25 12:38:16;;;;;;;35.00;5.73;;;24.00;69.30;;;;;;5033561;28;20493;-62
2021/01/25 12:40:43;;;;;;;18.00;4.50;;;24.10;70.00;;;;;;5033709;28;20449;-62
2021/01/25 12:43:09;;;;;;;36.60;6.50;;;24.00;69.60;;;;;;5033586;28;20510;-62
2021/01/25 12:45:36;;;;;;;30.10;6.00;;;24.10;70.50;;;;;;5033584;28;20444;-62
2021/01/25 12:48:03;;;;;;;24.40;6.10;;;24.10;71.00;;;;;;5033564;28;20471;-62
2021/01/25 12:50:29;;;;;;;21.73;5.20;;;24.10;72.20;;;;;;5033528;28;20460;-62
2021/01/25 12:52:55;;;;;;;23.00;6.23;;;24.10;71.10;;;;;;5035241;28;20444;-63
2021/01/25 12:55:22;;;;;;;21.37;5.20;;;24.10;71.50;;;;;;5037568;28;20494;-63
2021/01/25 12:57:49;;;;;;;23.83;5.20;;;24.10;72.10;;;;;;5037419;28;20479;-62
2021/01/25 13:00:18;;;;;;;18.90;4.83;;;24.10;72.70;;;;;;5037721;28;20498;-62